Johannesburg, MI

5:42 PM EDT on May 29, 2015 (GMT -0400)
Lake Louise | | Change Station
CLOSE
Current Station
Personal Weather Station
Location: Johannesburg, MI
Elevation: 1358 ft
Nearby Weather Stations

Elev 1358 ft 44.98 °N, 84.49 °W | Updated 7 minutes ago

Mostly Cloudy
Mostly Cloudy
70.5 °F
Feels Like 70.5 °F
N
0.0
Wind Variable Wind from ESE

Today
High -- | Low -- °F
--% Chance of Precip.
Yesterday
High -- | Low -- °F
Precip. -- in
5:56 AM 9:14 PM
Waxing Gibbous, 86% visible
Pressure 29.98 in
Visibility 10.0 miles
Clouds Few 7000 ft
Dew Point 69 °F
Humidity 96%
Rainfall 0.33 in
Snow Depth Not available.
UV 6 out of 12
Pollen 6.90 out of 12
Air Quality Not available.
Flu Activity Sporadic
METAR KGLR 292053Z AUTO 19008KT 10SM FEW070 21/19 A2998 RMK AO2 SLP150 60041 T02110189 58012

More Conditions Fewer Conditions

Pressure 29.98 in
Visibility 10.0 miles
Clouds Few 7000 ft
Dew Point 69 °F
Humidity 96%
Rainfall 0.33 in
Snow Depth Not available.
UV 6 out of 12
Pollen 6.90 out of 12
Air Quality Not available.
Flu Activity Sporadic
METAR KGLR 292053Z AUTO 19008KT 10SM FEW070 21/19 A2998 RMK AO2 SLP150 60041 T02110189 58012

More Conditions Fewer Conditions

Nowcast | as of 5:00 PM EDT on May 29, 2015

At 6 PM...mostly cloudy. Chance of showers and slight chance of thunderstorms. Temperature 73. Southwest winds 11 mph. At 8 PM...numerous thunderstorms. Temperature 75. South winds 9 mph. At 10 PM...numerous thunderstorms. Temperature 70. South winds 7 mph. At 12 am...showers likely and scattered thunderstorms. Temperature 67. Southwest winds 7 mph.

×

10-Day Weather Forecast

Almanac

Astronomy

May. 29, 2015 Rise Set
Actual Time
Civil Twilight
Nautical Twilight
Astronomical Twilight
Moon
Length of Visible Light
Length of Day
Tomorrow will be .
, % of the Moon is Illuminated

Today's Extremes

State Highs State Lows

Community

WunderPhotos

Upload Photos

1,825,372 photos uploaded!

WunderBlogs® & News

Nearby

Air Quality

  Air Quality AQ Index Pollutant
Not available.

Snow Depth

Station Depth Elevation

Earthquake Activity

City Distance Mag. Time & Date
Minimum magnitude displayed is 2.5.

Coastal Water Temperatures

Place Temperature

Stations

Nearby Weather Stations

Station Location Temp. Windchill Dew Point Humidity Wind Precip. Elev Updated Type